sensor_id;sensor_type;location;lat;lon;timestamp;P1;durP1;ratioP1;P2;durP2;ratioP2
4078;SDS011;2054;47.858;11.156;2022-09-27T02:30:25;4.15;;;1.92;;
4078;SDS011;2054;47.858;11.156;2022-09-27T02:32:52;2.17;;;1.95;;
4078;SDS011;2054;47.858;11.156;2022-09-27T02:35:21;2.13;;;1.92;;
4078;SDS011;2054;47.858;11.156;2022-09-27T02:37:50;5.78;;;1.80;;
4078;SDS011;2054;47.858;11.156;2022-09-27T02:40:18;3.10;;;2.15;;
4078;SDS011;2054;47.858;11.156;2022-09-27T02:42:46;3.75;;;1.90;;
4078;SDS011;2054;47.858;11.156;2022-09-27T02:45:13;2.47;;;2.00;;
4078;SDS011;2054;47.858;11.156;2022-09-27T02:47:49;3.45;;;2.45;;
4078;SDS011;2054;47.858;11.156;2022-09-27T02:53:12;3.03;;;2.25;;
4078;SDS011;2054;47.858;11.156;2022-09-27T02:55:48;6.05;;;1.98;;
4078;SDS011;2054;47.858;11.156;2022-09-27T02:58:22;3.72;;;2.35;;
4078;SDS011;2054;47.858;11.156;2022-09-27T03:00:55;2.05;;;1.77;;
4078;SDS011;2054;47.858;11.156;2022-09-27T03:03:25;2.78;;;2.33;;
4078;SDS011;2054;47.858;11.156;2022-09-27T03:05:57;2.92;;;2.15;;
4078;SDS011;2054;47.858;11.156;2022-09-27T03:08:27;3.53;;;2.08;;
4078;SDS011;2054;47.858;11.156;2022-09-27T03:10:54;3.00;;;1.92;;
4078;SDS011;2054;47.858;11.156;2022-09-27T03:13:22;2.17;;;1.88;;
4078;SDS011;2054;47.858;11.156;2022-09-27T03:15:49;3.13;;;2.17;;
4078;SDS011;2054;47.858;11.156;2022-09-27T03:18:17;4.07;;;2.30;;
4078;SDS011;2054;47.858;11.156;2022-09-27T03:20:45;3.30;;;2.28;;
4078;SDS011;2054;47.858;11.156;2022-09-27T03:23:12;4.32;;;2.40;;
4078;SDS011;2054;47.858;11.156;2022-09-27T03:25:40;2.97;;;2.53;;
4078;SDS011;2054;47.858;11.156;2022-09-27T03:28:07;2.70;;;2.22;;
4078;SDS011;2054;47.858;11.156;2022-09-27T03:30:34;2.63;;;2.22;;
4078;SDS011;2054;47.858;11.156;2022-09-27T03:33:02;5.63;;;2.33;;
4078;SDS011;2054;47.858;11.156;2022-09-27T03:35:29;3.38;;;2.00;;
4078;SDS011;2054;47.858;11.156;2022-09-27T03:37:59;2.80;;;2.22;;
4078;SDS011;2054;47.858;11.156;2022-09-27T03:40:27;3.47;;;2.40;;
4078;SDS011;2054;47.858;11.156;2022-09-27T03:42:54;4.82;;;2.85;;
4078;SDS011;2054;47.858;11.156;2022-09-27T03:45:22;4.60;;;2.75;;
4078;SDS011;2054;47.858;11.156;2022-09-27T03:47:49;4.53;;;2.90;;
4078;SDS011;2054;47.858;11.156;2022-09-27T03:50:16;2.75;;;2.20;;
4078;SDS011;2054;47.858;11.156;2022-09-27T03:52:44;2.75;;;2.05;;
4078;SDS011;2054;47.858;11.156;2022-09-27T03:55:12;2.17;;;1.92;;
4078;SDS011;2054;47.858;11.156;2022-09-27T03:57:43;2.42;;;2.20;;
4078;SDS011;2054;47.858;11.156;2022-09-27T04:00:11;3.45;;;2.45;;
4078;SDS011;2054;47.858;11.156;2022-09-27T04:02:38;3.05;;;2.47;;
4078;SDS011;2054;47.858;11.156;2022-09-27T04:05:06;2.75;;;2.40;;
4078;SDS011;2054;47.858;11.156;2022-09-27T04:07:33;3.33;;;2.42;;
4078;SDS011;2054;47.858;11.156;2022-09-27T04:10:02;5.30;;;2.85;;
4078;SDS011;2054;47.858;11.156;2022-09-27T04:12:30;4.55;;;2.50;;
4078;SDS011;2054;47.858;11.156;2022-09-27T04:14:58;3.08;;;2.30;;
4078;SDS011;2054;47.858;11.156;2022-09-27T04:17:25;2.53;;;1.85;;
4078;SDS011;2054;47.858;11.156;2022-09-27T04:19:52;3.20;;;2.20;;
4078;SDS011;2054;47.858;11.156;2022-09-27T04:22:20;33.80;;;17.30;;
4078;SDS011;2054;47.858;11.156;2022-09-27T04:24:47;30.55;;;15.07;;
4078;SDS011;2054;47.858;11.156;2022-09-27T04:27:15;13.82;;;8.48;;
4078;SDS011;2054;47.858;11.156;2022-09-27T04:29:44;13.75;;;8.23;;
4078;SDS011;2054;47.858;11.156;2022-09-27T04:32:11;8.52;;;5.40;;
4078;SDS011;2054;47.858;11.156;2022-09-27T04:34:38;7.95;;;4.97;;
4078;SDS011;2054;47.858;11.156;2022-09-27T04:37:24;6.82;;;4.90;;
4078;SDS011;2054;47.858;11.156;2022-09-27T04:39:51;5.55;;;4.43;;
4078;SDS011;2054;47.858;11.156;2022-09-27T04:42:18;6.63;;;4.57;;
4078;SDS011;2054;47.858;11.156;2022-09-27T04:44:47;10.27;;;5.50;;
4078;SDS011;2054;47.858;11.156;2022-09-27T04:47:14;5.53;;;4.05;;
4078;SDS011;2054;47.858;11.156;2022-09-27T04:49:43;5.97;;;3.30;;
4078;SDS011;2054;47.858;11.156;2022-09-27T04:52:10;2.63;;;2.30;;
4078;SDS011;2054;47.858;11.156;2022-09-27T04:54:38;4.35;;;2.22;;
4078;SDS011;2054;47.858;11.156;2022-09-27T04:57:05;2.17;;;1.75;;
4078;SDS011;2054;47.858;11.156;2022-09-27T04:59:33;1.98;;;1.58;;
4078;SDS011;2054;47.858;11.156;2022-09-27T05:02:01;2.05;;;1.27;;
4078;SDS011;2054;47.858;11.156;2022-09-27T05:04:29;3.17;;;1.10;;
4078;SDS011;2054;47.858;11.156;2022-09-27T05:06:56;1.45;;;1.05;;
4078;SDS011;2054;47.858;11.156;2022-09-27T05:09:24;1.25;;;1.15;;
4078;SDS011;2054;47.858;11.156;2022-09-27T05:11:51;2.15;;;1.10;;
4078;SDS011;2054;47.858;11.156;2022-09-27T05:14:18;1.45;;;0.85;;
4078;SDS011;2054;47.858;11.156;2022-09-27T05:16:45;0.75;;;0.63;;
4078;SDS011;2054;47.858;11.156;2022-09-27T05:19:14;2.28;;;0.75;;
4078;SDS011;2054;47.858;11.156;2022-09-27T05:21:41;2.08;;;0.93;;
4078;SDS011;2054;47.858;11.156;2022-09-27T05:24:09;0.68;;;0.68;;
4078;SDS011;2054;47.858;11.156;2022-09-27T05:26:36;2.03;;;0.98;;
4078;SDS011;2054;47.858;11.156;2022-09-27T05:29:03;1.50;;;1.02;;
4078;SDS011;2054;47.858;11.156;2022-09-27T05:31:32;2.60;;;0.90;;
4078;SDS011;2054;47.858;11.156;2022-09-27T05:34:00;1.35;;;0.70;;
4078;SDS011;2054;47.858;11.156;2022-09-27T05:36:29;2.58;;;0.90;;
4078;SDS011;2054;47.858;11.156;2022-09-27T05:38:57;2.25;;;0.80;;
4078;SDS011;2054;47.858;11.156;2022-09-27T05:41:24;1.35;;;1.05;;
4078;SDS011;2054;47.858;11.156;2022-09-27T05:43:51;1.48;;;1.00;;
4078;SDS011;2054;47.858;11.156;2022-09-27T05:46:19;1.98;;;0.77;;
4078;SDS011;2054;47.858;11.156;2022-09-27T05:48:47;2.25;;;0.80;;
4078;SDS011;2054;47.858;11.156;2022-09-27T05:51:14;1.02;;;0.70;;
4078;SDS011;2054;47.858;11.156;2022-09-27T05:53:44;1.95;;;0.63;;
4078;SDS011;2054;47.858;11.156;2022-09-27T05:56:12;0.52;;;0.50;;
4078;SDS011;2054;47.858;11.156;2022-09-27T05:58:39;0.93;;;0.60;;
4078;SDS011;2054;47.858;11.156;2022-09-27T06:01:06;1.58;;;0.55;;
4078;SDS011;2054;47.858;11.156;2022-09-27T06:03:34;2.05;;;0.55;;
4078;SDS011;2054;47.858;11.156;2022-09-27T06:06:01;1.77;;;0.70;;
4078;SDS011;2054;47.858;11.156;2022-09-27T06:08:31;0.40;;;0.40;;
4078;SDS011;2054;47.858;11.156;2022-09-27T06:11:00;0.68;;;0.68;;
4078;SDS011;2054;47.858;11.156;2022-09-27T06:13:29;1.20;;;0.77;;
4078;SDS011;2054;47.858;11.156;2022-09-27T06:15:57;0.95;;;0.50;;
4078;SDS011;2054;47.858;11.156;2022-09-27T06:18:24;0.50;;;0.50;;
4078;SDS011;2054;47.858;11.156;2022-09-27T06:20:52;0.47;;;0.47;;
4078;SDS011;2054;47.858;11.156;2022-09-27T06:23:20;1.70;;;0.60;;
4078;SDS011;2054;47.858;11.156;2022-09-27T06:25:48;1.02;;;0.70;;
4078;SDS011;2054;47.858;11.156;2022-09-27T06:28:17;0.55;;;0.55;;
4078;SDS011;2054;47.858;11.156;2022-09-27T06:30:45;0.57;;;0.57;;
4078;SDS011;2054;47.858;11.156;2022-09-27T06:33:13;0.80;;;0.80;;
4078;SDS011;2054;47.858;11.156;2022-09-27T06:35:41;0.70;;;0.70;;
4078;SDS011;2054;47.858;11.156;2022-09-27T06:38:10;1.23;;;0.95;;
4078;SDS011;2054;47.858;11.156;2022-09-27T06:40:37;0.70;;;0.70;;
4078;SDS011;2054;47.858;11.156;2022-09-27T06:43:05;1.02;;;0.90;;
4078;SDS011;2054;47.858;11.156;2022-09-27T06:45:34;0.70;;;0.65;;
4078;SDS011;2054;47.858;11.156;2022-09-27T06:48:02;0.60;;;0.60;;
4078;SDS011;2054;47.858;11.156;2022-09-27T06:50:30;1.88;;;0.65;;
4078;SDS011;2054;47.858;11.156;2022-09-27T06:52:58;1.17;;;0.63;;
4078;SDS011;2054;47.858;11.156;2022-09-27T06:55:25;2.63;;;0.70;;
4078;SDS011;2054;47.858;11.156;2022-09-27T06:57:52;0.70;;;0.70;;
4078;SDS011;2054;47.858;11.156;2022-09-27T07:00:39;1.10;;;0.80;;
4078;SDS011;2054;47.858;11.156;2022-09-27T07:03:07;0.60;;;0.55;;
4078;SDS011;2054;47.858;11.156;2022-09-27T07:05:35;2.28;;;0.60;;
4078;SDS011;2054;47.858;11.156;2022-09-27T07:08:03;0.57;;;0.45;;
4078;SDS011;2054;47.858;11.156;2022-09-27T07:10:32;1.08;;;0.60;;
4078;SDS011;2054;47.858;11.156;2022-09-27T07:13:02;0.70;;;0.50;;
4078;SDS011;2054;47.858;11.156;2022-09-27T07:15:29;0.43;;;0.43;;
4078;SDS011;2054;47.858;11.156;2022-09-27T07:17:58;0.50;;;0.40;;
4078;SDS011;2054;47.858;11.156;2022-09-27T07:20:26;0.50;;;0.50;;
4078;SDS011;2054;47.858;11.156;2022-09-27T07:22:53;1.45;;;0.50;;
4078;SDS011;2054;47.858;11.156;2022-09-27T07:25:20;0.80;;;0.50;;
4078;SDS011;2054;47.858;11.156;2022-09-27T07:27:48;0.65;;;0.45;;
4078;SDS011;2054;47.858;11.156;2022-09-27T07:30:17;2.20;;;0.80;;
4078;SDS011;2054;47.858;11.156;2022-09-27T07:32:44;2.28;;;0.80;;
4078;SDS011;2054;47.858;11.156;2022-09-27T07:35:13;0.95;;;0.70;;
4078;SDS011;2054;47.858;11.156;2022-09-27T07:37:40;1.52;;;0.63;;
4078;SDS011;2054;47.858;11.156;2022-09-27T07:40:09;2.47;;;0.98;;
4078;SDS011;2054;47.858;11.156;2022-09-27T07:42:36;2.05;;;0.80;;
4078;SDS011;2054;47.858;11.156;2022-09-27T07:45:05;0.98;;;0.70;;
4078;SDS011;2054;47.858;11.156;2022-09-27T07:47:33;0.98;;;0.75;;
4078;SDS011;2054;47.858;11.156;2022-09-27T07:50:01;0.52;;;0.47;;
4078;SDS011;2054;47.858;11.156;2022-09-27T07:52:37;0.50;;;0.50;;
4078;SDS011;2054;47.858;11.156;2022-09-27T07:55:05;2.50;;;0.60;;
4078;SDS011;2054;47.858;11.156;2022-09-27T07:57:32;0.70;;;0.70;;
4078;SDS011;2054;47.858;11.156;2022-09-27T08:00:00;0.60;;;0.60;;
4078;SDS011;2054;47.858;11.156;2022-09-27T08:02:27;0.88;;;0.68;;
4078;SDS011;2054;47.858;11.156;2022-09-27T08:04:57;1.67;;;0.50;;
4078;SDS011;2054;47.858;11.156;2022-09-27T08:07:24;0.50;;;0.50;;
4078;SDS011;2054;47.858;11.156;2022-09-27T08:09:53;1.05;;;0.60;;
4078;SDS011;2054;47.858;11.156;2022-09-27T08:12:20;1.38;;;0.63;;
4078;SDS011;2054;47.858;11.156;2022-09-27T08:14:47;1.02;;;0.60;;
4078;SDS011;2054;47.858;11.156;2022-09-27T08:17:15;1.92;;;0.65;;
4078;SDS011;2054;47.858;11.156;2022-09-27T08:19:43;3.55;;;0.80;;
4078;SDS011;2054;47.858;11.156;2022-09-27T08:22:13;0.65;;;0.47;;
4078;SDS011;2054;47.858;11.156;2022-09-27T08:24:41;1.58;;;0.70;;
4078;SDS011;2054;47.858;11.156;2022-09-27T08:27:10;3.00;;;0.70;;
4078;SDS011;2054;47.858;11.156;2022-09-27T08:29:37;4.07;;;0.68;;
4078;SDS011;2054;47.858;11.156;2022-09-27T08:32:05;1.85;;;0.60;;
4078;SDS011;2054;47.858;11.156;2022-09-27T08:34:33;1.20;;;0.50;;
4078;SDS011;2054;47.858;11.156;2022-09-27T08:37:01;0.50;;;0.50;;
4078;SDS011;2054;47.858;11.156;2022-09-27T08:39:28;0.50;;;0.50;;
4078;SDS011;2054;47.858;11.156;2022-09-27T08:41:59;0.77;;;0.57;;
4078;SDS011;2054;47.858;11.156;2022-09-27T08:44:31;0.47;;;0.40;;
4078;SDS011;2054;47.858;11.156;2022-09-27T08:47:01;1.65;;;0.57;;
4078;SDS011;2054;47.858;11.156;2022-09-27T08:49:30;1.05;;;0.55;;
4078;SDS011;2054;47.858;11.156;2022-09-27T08:51:58;0.65;;;0.45;;
4078;SDS011;2054;47.858;11.156;2022-09-27T08:54:27;0.95;;;0.40;;
4078;SDS011;2054;47.858;11.156;2022-09-27T08:56:56;1.02;;;0.50;;
4078;SDS011;2054;47.858;11.156;2022-09-27T08:59:28;0.60;;;0.57;;
4078;SDS011;2054;47.858;11.156;2022-09-27T09:01:58;0.85;;;0.50;;
4078;SDS011;2054;47.858;11.156;2022-09-27T09:04:26;0.50;;;0.50;;
4078;SDS011;2054;47.858;11.156;2022-09-27T09:06:59;1.35;;;0.60;;
4078;SDS011;2054;47.858;11.156;2022-09-27T09:09:29;0.70;;;0.70;;
4078;SDS011;2054;47.858;11.156;2022-09-27T09:12:03;0.88;;;0.55;;
4078;SDS011;2054;47.858;11.156;2022-09-27T09:14:57;0.73;;;0.63;;
4078;SDS011;2054;47.858;11.156;2022-09-27T09:17:32;0.77;;;0.77;;
4078;SDS011;2054;47.858;11.156;2022-09-27T09:20:11;1.52;;;0.80;;
4078;SDS011;2054;47.858;11.156;2022-09-27T09:22:45;1.55;;;0.85;;
4078;SDS011;2054;47.858;11.156;2022-09-27T09:25:21;2.25;;;0.85;;
4078;SDS011;2054;47.858;11.156;2022-09-27T09:27:51;1.58;;;0.82;;
4078;SDS011;2054;47.858;11.156;2022-09-27T09:30:21;2.10;;;0.70;;
4078;SDS011;2054;47.858;11.156;2022-09-27T09:32:53;0.40;;;0.40;;
4078;SDS011;2054;47.858;11.156;2022-09-27T09:35:24;0.63;;;0.40;;
4078;SDS011;2054;47.858;11.156;2022-09-27T09:37:52;0.93;;;0.90;;
4078;SDS011;2054;47.858;11.156;2022-09-27T09:40:21;0.73;;;0.73;;
4078;SDS011;2054;47.858;11.156;2022-09-27T09:42:51;0.85;;;0.65;;
4078;SDS011;2054;47.858;11.156;2022-09-27T09:45:21;0.50;;;0.50;;
4078;SDS011;2054;47.858;11.156;2022-09-27T09:47:53;0.32;;;0.32;;
4078;SDS011;2054;47.858;11.156;2022-09-27T09:50:24;0.40;;;0.40;;
4078;SDS011;2054;47.858;11.156;2022-09-27T09:52:53;0.20;;;0.20;;
4078;SDS011;2054;47.858;11.156;2022-09-27T09:55:22;0.47;;;0.40;;
4078;SDS011;2054;47.858;11.156;2022-09-27T09:57:55;0.38;;;0.38;;
4078;SDS011;2054;47.858;11.156;2022-09-27T10:00:25;0.40;;;0.40;;
4078;SDS011;2054;47.858;11.156;2022-09-27T10:02:54;0.52;;;0.40;;
4078;SDS011;2054;47.858;11.156;2022-09-27T10:05:24;1.70;;;0.40;;
4078;SDS011;2054;47.858;11.156;2022-09-27T10:07:52;0.35;;;0.35;;
4078;SDS011;2054;47.858;11.156;2022-09-27T10:10:20;0.30;;;0.30;;
4078;SDS011;2054;47.858;11.156;2022-09-27T10:12:47;0.35;;;0.35;;
4078;SDS011;2054;47.858;11.156;2022-09-27T10:15:16;0.38;;;0.38;;
4078;SDS011;2054;47.858;11.156;2022-09-27T10:17:45;0.30;;;0.30;;
4078;SDS011;2054;47.858;11.156;2022-09-27T10:20:18;0.40;;;0.40;;
4078;SDS011;2054;47.858;11.156;2022-09-27T10:22:48;0.40;;;0.40;;
4078;SDS011;2054;47.858;11.156;2022-09-27T10:25:19;0.80;;;0.80;;
4078;SDS011;2054;47.858;11.156;2022-09-27T10:27:47;0.50;;;0.50;;
4078;SDS011;2054;47.858;11.156;2022-09-27T10:30:23;0.40;;;0.40;;
4078;SDS011;2054;47.858;11.156;2022-09-27T10:32:51;0.40;;;0.40;;
4078;SDS011;2054;47.858;11.156;2022-09-27T10:35:30;0.80;;;0.80;;
4078;SDS011;2054;47.858;11.156;2022-09-27T10:38:09;0.50;;;0.50;;
4078;SDS011;2054;47.858;11.156;2022-09-27T10:40:39;0.63;;;0.40;;
4078;SDS011;2054;47.858;11.156;2022-09-27T10:43:16;0.43;;;0.43;;
4078;SDS011;2054;47.858;11.156;2022-09-27T10:45:50;0.40;;;0.40;;
4078;SDS011;2054;47.858;11.156;2022-09-27T10:48:24;0.40;;;0.40;;
4078;SDS011;2054;47.858;11.156;2022-09-27T10:50:57;0.43;;;0.43;;
4078;SDS011;2054;47.858;11.156;2022-09-27T10:53:25;2.20;;;0.50;;
4078;SDS011;2054;47.858;11.156;2022-09-27T10:55:53;0.50;;;0.50;;
4078;SDS011;2054;47.858;11.156;2022-09-27T10:58:23;0.32;;;0.32;;
4078;SDS011;2054;47.858;11.156;2022-09-27T11:00:55;0.43;;;0.43;;
4078;SDS011;2054;47.858;11.156;2022-09-27T11:03:22;0.50;;;0.50;;
4078;SDS011;2054;47.858;11.156;2022-09-27T11:05:53;0.65;;;0.40;;
4078;SDS011;2054;47.858;11.156;2022-09-27T11:08:28;0.95;;;0.55;;
4078;SDS011;2054;47.858;11.156;2022-09-27T11:11:00;0.32;;;0.32;;
4078;SDS011;2054;47.858;11.156;2022-09-27T11:13:28;0.30;;;0.30;;
4078;SDS011;2054;47.858;11.156;2022-09-27T11:16:02;0.60;;;0.50;;
4078;SDS011;2054;47.858;11.156;2022-09-27T11:18:35;0.52;;;0.50;;
4078;SDS011;2054;47.858;11.156;2022-09-27T11:21:08;1.65;;;0.80;;
4078;SDS011;2054;47.858;11.156;2022-09-27T11:23:50;0.93;;;0.60;;
4078;SDS011;2054;47.858;11.156;2022-09-27T11:26:25;0.80;;;0.70;;
4078;SDS011;2054;47.858;11.156;2022-09-27T11:28:54;1.17;;;0.80;;
4078;SDS011;2054;47.858;11.156;2022-09-27T11:31:27;0.73;;;0.73;;
4078;SDS011;2054;47.858;11.156;2022-09-27T11:33:59;1.38;;;0.90;;
4078;SDS011;2054;47.858;11.156;2022-09-27T11:36:32;0.90;;;0.60;;
4078;SDS011;2054;47.858;11.156;2022-09-27T11:39:04;0.98;;;0.60;;
4078;SDS011;2054;47.858;11.156;2022-09-27T11:41:37;1.38;;;0.77;;
4078;SDS011;2054;47.858;11.156;2022-09-27T11:44:29;2.53;;;0.85;;
4078;SDS011;2054;47.858;11.156;2022-09-27T11:47:03;0.68;;;0.68;;
4078;SDS011;2054;47.858;11.156;2022-09-27T11:52:21;1.50;;;0.73;;
4078;SDS011;2054;47.858;11.156;2022-09-27T11:55:06;2.03;;;0.77;;
4078;SDS011;2054;47.858;11.156;2022-09-27T11:57:35;0.60;;;0.60;;
4078;SDS011;2054;47.858;11.156;2022-09-27T12:02:58;1.70;;;1.30;;
4078;SDS011;2054;47.858;11.156;2022-09-27T12:05:31;2.72;;;0.80;;
4078;SDS011;2054;47.858;11.156;2022-09-27T12:08:08;1.08;;;0.90;;
4078;SDS011;2054;47.858;11.156;2022-09-27T12:10:40;1.75;;;0.85;;
4078;SDS011;2054;47.858;11.156;2022-09-27T12:13:09;1.67;;;0.70;;
4078;SDS011;2054;47.858;11.156;2022-09-27T12:15:39;3.35;;;0.90;;
4078;SDS011;2054;47.858;11.156;2022-09-27T12:18:09;2.25;;;0.80;;
4078;SDS011;2054;47.858;11.156;2022-09-27T12:20:38;2.20;;;1.10;;
4078;SDS011;2054;47.858;11.156;2022-09-27T12:23:08;1.30;;;0.90;;
4078;SDS011;2054;47.858;11.156;2022-09-27T12:25:38;2.45;;;0.90;;
4078;SDS011;2054;47.858;11.156;2022-09-27T12:28:09;2.55;;;0.90;;
4078;SDS011;2054;47.858;11.156;2022-09-27T12:30:39;2.45;;;1.00;;
4078;SDS011;2054;47.858;11.156;2022-09-27T12:33:09;2.33;;;1.00;;
4078;SDS011;2054;47.858;11.156;2022-09-27T12:35:39;1.40;;;0.80;;
4078;SDS011;2054;47.858;11.156;2022-09-27T12:38:09;0.80;;;0.80;;
4078;SDS011;2054;47.858;11.156;2022-09-27T12:40:38;1.58;;;1.00;;
4078;SDS011;2054;47.858;11.156;2022-09-27T12:43:08;2.53;;;1.10;;
4078;SDS011;2054;47.858;11.156;2022-09-27T12:45:45;0.98;;;0.90;;
4078;SDS011;2054;47.858;11.156;2022-09-27T12:48:18;1.25;;;1.10;;
4078;SDS011;2054;47.858;11.156;2022-09-27T12:50:47;1.85;;;0.82;;
4078;SDS011;2054;47.858;11.156;2022-09-27T12:53:16;1.52;;;0.93;;
4078;SDS011;2054;47.858;11.156;2022-09-27T13:01:39;1.77;;;0.80;;
4078;SDS011;2054;47.858;11.156;2022-09-27T13:04:20;2.80;;;2.60;;
4078;SDS011;2054;47.858;11.156;2022-09-27T13:06:54;3.15;;;0.90;;
4078;SDS011;2054;47.858;11.156;2022-09-27T13:09:31;1.63;;;0.73;;
4078;SDS011;2054;47.858;11.156;2022-09-27T13:12:03;1.13;;;0.88;;
4078;SDS011;2054;47.858;11.156;2022-09-27T13:14:38;0.75;;;0.75;;
4078;SDS011;2054;47.858;11.156;2022-09-27T13:17:15;1.08;;;0.98;;
4078;SDS011;2054;47.858;11.156;2022-09-27T13:19:57;1.95;;;1.10;;
4078;SDS011;2054;47.858;11.156;2022-09-27T13:22:36;4.47;;;2.42;;
4078;SDS011;2054;47.858;11.156;2022-09-27T13:27:46;5.28;;;3.58;;
4078;SDS011;2054;47.858;11.156;2022-09-27T13:36:06;2.95;;;1.40;;
4078;SDS011;2054;47.858;11.156;2022-09-27T13:38:34;2.58;;;0.73;;
4078;SDS011;2054;47.858;11.156;2022-09-27T13:41:12;2.20;;;1.08;;
4078;SDS011;2054;47.858;11.156;2022-09-27T13:43:50;0.70;;;0.70;;
4078;SDS011;2054;47.858;11.156;2022-09-27T13:46:27;1.30;;;0.80;;
4078;SDS011;2054;47.858;11.156;2022-09-27T13:48:55;1.65;;;0.98;;
4078;SDS011;2054;47.858;11.156;2022-09-27T13:51:27;1.33;;;0.88;;
4078;SDS011;2054;47.858;11.156;2022-09-27T13:54:01;1.73;;;1.10;;
4078;SDS011;2054;47.858;11.156;2022-09-27T13:59:15;2.00;;;1.00;;
4078;SDS011;2054;47.858;11.156;2022-09-27T14:01:44;1.65;;;0.80;;
4078;SDS011;2054;47.858;11.156;2022-09-27T14:04:13;1.00;;;0.77;;
4078;SDS011;2054;47.858;11.156;2022-09-27T14:06:46;0.60;;;0.60;;
4078;SDS011;2054;47.858;11.156;2022-09-27T14:09:15;0.68;;;0.63;;
4078;SDS011;2054;47.858;11.156;2022-09-27T14:11:43;1.52;;;0.93;;
4078;SDS011;2054;47.858;11.156;2022-09-27T14:14:15;0.73;;;0.73;;
4078;SDS011;2054;47.858;11.156;2022-09-27T14:16:43;1.08;;;0.70;;
4078;SDS011;2054;47.858;11.156;2022-09-27T14:19:12;1.50;;;1.40;;
4078;SDS011;2054;47.858;11.156;2022-09-27T14:21:46;0.70;;;0.70;;
4078;SDS011;2054;47.858;11.156;2022-09-27T14:24:28;1.15;;;0.95;;
4078;SDS011;2054;47.858;11.156;2022-09-27T14:27:03;1.90;;;1.13;;
4078;SDS011;2054;47.858;11.156;2022-09-27T14:29:31;1.50;;;0.98;;
4078;SDS011;2054;47.858;11.156;2022-09-27T14:32:02;3.00;;;1.10;;
4078;SDS011;2054;47.858;11.156;2022-09-27T14:34:30;2.15;;;0.80;;
4078;SDS011;2054;47.858;11.156;2022-09-27T14:36:58;1.00;;;0.80;;
4078;SDS011;2054;47.858;11.156;2022-09-27T14:39:43;1.58;;;0.80;;
4078;SDS011;2054;47.858;11.156;2022-09-27T14:42:16;2.08;;;0.70;;
4078;SDS011;2054;47.858;11.156;2022-09-27T14:44:45;1.52;;;0.68;;
4078;SDS011;2054;47.858;11.156;2022-09-27T14:47:15;1.48;;;0.80;;
4078;SDS011;2054;47.858;11.156;2022-09-27T14:49:47;0.70;;;0.60;;
4078;SDS011;2054;47.858;11.156;2022-09-27T14:52:17;0.65;;;0.65;;
4078;SDS011;2054;47.858;11.156;2022-09-27T14:54:53;1.23;;;0.70;;
4078;SDS011;2054;47.858;11.156;2022-09-27T14:57:21;0.60;;;0.60;;
4078;SDS011;2054;47.858;11.156;2022-09-27T14:59:48;1.80;;;0.75;;
4078;SDS011;2054;47.858;11.156;2022-09-27T15:02:17;1.02;;;0.70;;
4078;SDS011;2054;47.858;11.156;2022-09-27T15:04:46;2.72;;;2.30;;
4078;SDS011;2054;47.858;11.156;2022-09-27T15:07:14;1.60;;;1.48;;
4078;SDS011;2054;47.858;11.156;2022-09-27T15:09:44;1.40;;;1.30;;
4078;SDS011;2054;47.858;11.156;2022-09-27T15:12:12;2.30;;;1.80;;
4078;SDS011;2054;47.858;11.156;2022-09-27T15:14:42;0.93;;;0.88;;
4078;SDS011;2054;47.858;11.156;2022-09-27T15:17:14;0.60;;;0.60;;
4078;SDS011;2054;47.858;11.156;2022-09-27T15:22:34;0.95;;;0.68;;
4078;SDS011;2054;47.858;11.156;2022-09-27T15:25:13;1.13;;;0.60;;
4078;SDS011;2054;47.858;11.156;2022-09-27T15:27:45;0.60;;;0.60;;
4078;SDS011;2054;47.858;11.156;2022-09-27T15:30:15;1.10;;;0.80;;
4078;SDS011;2054;47.858;11.156;2022-09-27T15:32:46;3.00;;;0.80;;
4078;SDS011;2054;47.858;11.156;2022-09-27T15:35:14;0.70;;;0.70;;
4078;SDS011;2054;47.858;11.156;2022-09-27T15:37:45;1.00;;;1.00;;
4078;SDS011;2054;47.858;11.156;2022-09-27T15:43:19;2.67;;;0.98;;
4078;SDS011;2054;47.858;11.156;2022-09-27T15:45:48;2.30;;;1.60;;
4078;SDS011;2054;47.858;11.156;2022-09-27T15:48:15;2.38;;;1.30;;
4078;SDS011;2054;47.858;11.156;2022-09-27T15:50:42;3.33;;;2.25;;
4078;SDS011;2054;47.858;11.156;2022-09-27T15:53:11;1.83;;;1.35;;
4078;SDS011;2054;47.858;11.156;2022-09-27T15:55:39;2.65;;;1.80;;
4078;SDS011;2054;47.858;11.156;2022-09-27T15:58:27;1.23;;;1.13;;
4078;SDS011;2054;47.858;11.156;2022-09-27T16:00:56;1.17;;;1.13;;
4078;SDS011;2054;47.858;11.156;2022-09-27T16:03:24;0.80;;;0.80;;
4078;SDS011;2054;47.858;11.156;2022-09-27T16:05:52;2.70;;;0.88;;
4078;SDS011;2054;47.858;11.156;2022-09-27T16:08:20;1.33;;;0.70;;
4078;SDS011;2054;47.858;11.156;2022-09-27T16:10:47;1.17;;;0.90;;
4078;SDS011;2054;47.858;11.156;2022-09-27T16:13:15;1.90;;;1.30;;
4078;SDS011;2054;47.858;11.156;2022-09-27T16:15:44;1.27;;;1.17;;
4078;SDS011;2054;47.858;11.156;2022-09-27T16:18:11;1.05;;;0.98;;
4078;SDS011;2054;47.858;11.156;2022-09-27T16:20:39;3.22;;;0.65;;
4078;SDS011;2054;47.858;11.156;2022-09-27T16:23:06;1.27;;;0.90;;
4078;SDS011;2054;47.858;11.156;2022-09-27T16:25:33;1.13;;;0.82;;
4078;SDS011;2054;47.858;11.156;2022-09-27T16:28:01;2.45;;;1.10;;
4078;SDS011;2054;47.858;11.156;2022-09-27T16:30:28;1.35;;;0.80;;
4078;SDS011;2054;47.858;11.156;2022-09-27T16:32:58;1.75;;;0.80;;
4078;SDS011;2054;47.858;11.156;2022-09-27T16:35:26;1.83;;;0.80;;
4078;SDS011;2054;47.858;11.156;2022-09-27T16:37:54;1.52;;;0.93;;
4078;SDS011;2054;47.858;11.156;2022-09-27T16:40:22;2.67;;;0.90;;
4078;SDS011;2054;47.858;11.156;2022-09-27T16:42:51;0.93;;;0.82;;
4078;SDS011;2054;47.858;11.156;2022-09-27T16:45:18;0.60;;;0.60;;
4078;SDS011;2054;47.858;11.156;2022-09-27T16:47:46;0.88;;;0.70;;
4078;SDS011;2054;47.858;11.156;2022-09-27T16:50:14;1.60;;;0.77;;
4078;SDS011;2054;47.858;11.156;2022-09-27T16:53:00;0.80;;;0.80;;
4078;SDS011;2054;47.858;11.156;2022-09-27T16:55:29;1.95;;;0.80;;
4078;SDS011;2054;47.858;11.156;2022-09-27T16:57:56;1.15;;;0.80;;
4078;SDS011;2054;47.858;11.156;2022-09-27T17:00:24;0.70;;;0.70;;
4078;SDS011;2054;47.858;11.156;2022-09-27T17:02:51;1.77;;;0.73;;
4078;SDS011;2054;47.858;11.156;2022-09-27T17:05:20;0.57;;;0.57;;
4078;SDS011;2054;47.858;11.156;2022-09-27T17:07:48;2.70;;;0.75;;
4078;SDS011;2054;47.858;11.156;2022-09-27T17:10:16;2.17;;;0.70;;
4078;SDS011;2054;47.858;11.156;2022-09-27T17:12:43;0.63;;;0.57;;
4078;SDS011;2054;47.858;11.156;2022-09-27T17:15:11;1.27;;;0.70;;
4078;SDS011;2054;47.858;11.156;2022-09-27T17:17:38;1.52;;;0.65;;
4078;SDS011;2054;47.858;11.156;2022-09-27T17:20:06;1.10;;;0.85;;
4078;SDS011;2054;47.858;11.156;2022-09-27T17:22:35;2.10;;;0.75;;
4078;SDS011;2054;47.858;11.156;2022-09-27T17:25:02;0.60;;;0.60;;
4078;SDS011;2054;47.858;11.156;2022-09-27T17:27:29;1.88;;;0.80;;
4078;SDS011;2054;47.858;11.156;2022-09-27T17:29:56;0.90;;;0.90;;
4078;SDS011;2054;47.858;11.156;2022-09-27T17:32:23;0.63;;;0.63;;
4078;SDS011;2054;47.858;11.156;2022-09-27T17:34:51;1.15;;;1.05;;
4078;SDS011;2054;47.858;11.156;2022-09-27T17:37:19;1.35;;;1.00;;
4078;SDS011;2054;47.858;11.156;2022-09-27T17:39:48;4.75;;;1.40;;
4078;SDS011;2054;47.858;11.156;2022-09-27T17:42:15;0.70;;;0.70;;
4078;SDS011;2054;47.858;11.156;2022-09-27T17:44:43;0.93;;;0.80;;
4078;SDS011;2054;47.858;11.156;2022-09-27T17:47:10;1.55;;;0.80;;
4078;SDS011;2054;47.858;11.156;2022-09-27T17:49:55;0.82;;;0.82;;
4078;SDS011;2054;47.858;11.156;2022-09-27T17:52:40;4.25;;;0.80;;
4078;SDS011;2054;47.858;11.156;2022-09-27T17:55:08;1.95;;;1.20;;
4078;SDS011;2054;47.858;11.156;2022-09-27T17:57:35;2.08;;;1.88;;
4078;SDS011;2054;47.858;11.156;2022-09-27T18:00:03;2.40;;;1.40;;
4078;SDS011;2054;47.858;11.156;2022-09-27T18:02:31;1.50;;;1.23;;
4078;SDS011;2054;47.858;11.156;2022-09-27T18:04:58;2.15;;;1.48;;
4078;SDS011;2054;47.858;11.156;2022-09-27T18:07:26;2.20;;;1.30;;
4078;SDS011;2054;47.858;11.156;2022-09-27T18:09:54;1.33;;;1.00;;
4078;SDS011;2054;47.858;11.156;2022-09-27T18:12:23;1.27;;;1.05;;
4078;SDS011;2054;47.858;11.156;2022-09-27T18:14:55;1.08;;;0.80;;
4078;SDS011;2054;47.858;11.156;2022-09-27T18:17:23;3.08;;;1.33;;